Time;durP1;ratioP1;P1;durP2;ratioP2;P2;SDS_P1;SDS_P2;PMS_P1;PMS_P2;Temp;Humidity;BMP_temperature;BMP_pressure;BME280_temperature;BME280_humidity;BME280_pressure;Samples;Min_cycle;Max_cycle;Signal;HPM_P1;HPM_P2
2021/04/25 00:00:48;;;;;;;7.45;2.50;;;2.30;99.90;;;;;;5007299;28;20408;-50
2021/04/25 00:03:13;;;;;;;3.88;2.35;;;2.30;99.90;;;;;;4990571;28;20121;-53
2021/04/25 00:05:39;;;;;;;2.83;2.17;;;2.20;99.90;;;;;;5008305;28;20030;-51
2021/04/25 00:08:04;;;;;;;13.65;2.65;;;2.20;99.90;;;;;;5008101;28;20520;-52
2021/04/25 00:10:30;;;;;;;10.02;2.78;;;2.10;99.90;;;;;;5006808;28;20041;-50
2021/04/25 00:12:56;;;;;;;4.90;2.22;;;2.10;99.90;;;;;;5007885;28;20068;-51
2021/04/25 00:15:24;;;;;;;2.33;1.92;;;2.10;99.90;;;;;;5005075;28;20038;-51
2021/04/25 00:17:50;;;;;;;3.88;2.17;;;2.10;99.90;;;;;;5006844;28;20037;-51
2021/04/25 00:20:16;;;;;;;5.85;2.40;;;2.00;99.90;;;;;;5007943;28;20035;-52
2021/04/25 00:22:42;;;;;;;4.25;2.15;;;2.00;99.90;;;;;;4990054;28;20029;-52
2021/04/25 00:25:10;;;;;;;3.28;2.35;;;2.00;99.90;;;;;;5006523;28;20030;-53
2021/04/25 00:27:35;;;;;;;3.83;2.05;;;1.90;99.90;;;;;;5005681;28;20036;-55
2021/04/25 00:30:03;;;;;;;5.95;2.63;;;1.90;99.90;;;;;;5004639;28;20490;-53
2021/04/25 00:32:30;;;;;;;3.13;1.92;;;1.90;99.90;;;;;;5006716;28;20080;-52
2021/04/25 00:34:55;;;;;;;7.60;2.03;;;1.90;99.90;;;;;;5005897;28;20053;-57
2021/04/25 00:37:21;;;;;;;2.80;1.88;;;1.80;99.90;;;;;;5005644;28;20030;-49
2021/04/25 00:39:46;;;;;;;3.28;1.95;;;1.80;99.90;;;;;;5005681;28;20080;-49
2021/04/25 00:42:15;;;;;;;5.40;2.33;;;1.80;99.90;;;;;;5006259;28;20030;-53
2021/04/25 00:44:43;;;;;;;3.83;2.30;;;1.80;99.90;;;;;;5007226;28;20025;-52
2021/04/25 00:47:09;;;;;;;3.95;2.17;;;1.80;99.90;;;;;;5005012;28;20630;-51
2021/04/25 00:49:34;;;;;;;6.60;2.65;;;1.80;99.90;;;;;;5006573;28;20100;-52
2021/04/25 00:52:00;;;;;;;4.13;1.88;;;1.80;99.90;;;;;;5006509;28;20129;-49
2021/04/25 00:54:26;;;;;;;7.88;2.22;;;1.70;99.90;;;;;;5006708;28;20100;-50
2021/04/25 00:56:53;;;;;;;8.60;2.80;;;1.70;99.90;;;;;;5005820;28;20038;-55
2021/04/25 00:59:19;;;;;;;2.95;1.95;;;1.70;99.90;;;;;;4997302;28;20018;-53
2021/04/25 01:01:44;;;;;;;8.73;2.55;;;1.70;99.90;;;;;;5004501;28;20040;-49
2021/04/25 01:04:10;;;;;;;2.53;2.13;;;1.60;99.90;;;;;;5005149;28;20048;-54
2021/04/25 01:06:35;;;;;;;2.50;2.15;;;1.60;99.90;;;;;;5006611;28;20034;-52
2021/04/25 01:09:01;;;;;;;4.95;1.95;;;1.60;99.90;;;;;;5005921;28;20041;-54
2021/04/25 01:11:27;;;;;;;9.27;2.45;;;1.60;99.90;;;;;;5006751;28;20499;-54
2021/04/25 01:13:52;;;;;;;7.70;2.00;;;1.60;99.90;;;;;;5006093;28;20083;-51
2021/04/25 01:16:19;;;;;;;6.50;2.05;;;1.60;99.90;;;;;;5006717;28;20026;-48
2021/04/25 01:18:44;;;;;;;5.35;1.90;;;1.60;99.90;;;;;;5004901;28;20164;-51
2021/04/25 01:21:10;;;;;;;6.80;1.88;;;1.50;99.90;;;;;;5002428;28;20121;-50
2021/04/25 01:23:36;;;;;;;6.18;1.95;;;1.50;99.90;;;;;;5004331;28;20030;-52
2021/04/25 01:26:02;;;;;;;4.57;2.10;;;1.50;99.90;;;;;;5004830;28;20045;-51
2021/04/25 01:28:28;;;;;;;3.95;1.70;;;1.50;99.90;;;;;;5006850;28;20034;-52
2021/04/25 01:30:55;;;;;;;4.30;1.98;;;1.50;99.90;;;;;;5005713;28;20041;-53
2021/04/25 01:33:22;;;;;;;6.63;2.40;;;1.50;99.90;;;;;;5005980;28;20026;-51
2021/04/25 01:35:47;;;;;;;6.50;1.80;;;1.50;99.90;;;;;;5004766;28;20037;-48
2021/04/25 01:38:13;;;;;;;4.95;1.73;;;1.50;99.90;;;;;;5006609;28;20030;-51
2021/04/25 01:40:39;;;;;;;2.80;1.52;;;1.40;99.90;;;;;;5006477;28;20038;-49
2021/04/25 01:43:04;;;;;;;5.47;2.22;;;1.40;99.90;;;;;;5005331;28;20103;-50
2021/04/25 01:45:31;;;;;;;5.65;2.40;;;1.40;99.90;;;;;;5005334;28;20123;-53
2021/04/25 01:48:01;;;;;;;2.85;1.60;;;1.40;99.90;;;;;;5005578;28;20041;-53
2021/04/25 01:50:28;;;;;;;5.22;1.60;;;1.40;99.90;;;;;;5005157;28;20034;-55
2021/04/25 01:52:54;;;;;;;3.15;2.17;;;1.40;99.90;;;;;;5006495;28;20672;-49
2021/04/25 01:55:22;;;;;;;3.65;2.03;;;1.40;99.90;;;;;;5006476;28;20034;-48
2021/04/25 01:57:48;;;;;;;5.30;2.10;;;1.40;99.90;;;;;;5006577;28;20026;-51
2021/04/25 02:00:20;;;;;;;6.63;2.10;;;1.40;99.90;;;;;;5006187;28;20052;-50
2021/04/25 02:02:51;;;;;;;5.45;2.55;;;1.30;99.90;;;;;;5006162;28;20042;-53
2021/04/25 02:05:16;;;;;;;3.80;1.77;;;1.30;99.90;;;;;;5005904;28;20046;-54
2021/04/25 02:07:42;;;;;;;3.33;1.77;;;1.30;99.90;;;;;;5009573;28;20096;-49
2021/04/25 02:10:09;;;;;;;6.90;2.45;;;1.30;99.90;;;;;;5009668;28;20048;-51
2021/04/25 02:12:35;;;;;;;3.45;2.47;;;1.30;99.90;;;;;;5010491;28;20549;-54
2021/04/25 02:15:00;;;;;;;5.53;3.00;;;1.20;99.90;;;;;;5010520;28;20025;-52
2021/04/25 02:17:26;;;;;;;5.25;3.00;;;1.20;99.90;;;;;;5010575;28;20029;-53
2021/04/25 02:19:52;;;;;;;6.47;3.60;;;1.20;99.90;;;;;;5009823;28;20034;-49
2021/04/25 02:22:17;;;;;;;5.38;3.70;;;1.10;99.90;;;;;;5010291;28;20448;-52
2021/04/25 02:24:43;;;;;;;4.47;3.47;;;1.10;99.90;;;;;;5009857;28;20044;-52
2021/04/25 02:27:08;;;;;;;9.77;3.78;;;1.10;99.90;;;;;;5009212;28;20042;-53
2021/04/25 02:29:34;;;;;;;9.38;4.28;;;1.10;99.90;;;;;;5007369;28;20066;-53
2021/04/25 02:32:00;;;;;;;4.05;3.05;;;1.00;99.90;;;;;;5009028;28;20531;-53
2021/04/25 02:34:25;;;;;;;8.80;3.80;;;1.00;99.90;;;;;;5009839;28;20400;-54
2021/04/25 02:36:51;;;;;;;7.82;3.47;;;0.90;99.90;;;;;;5009939;28;20511;-51
2021/04/25 02:39:18;;;;;;;5.20;3.55;;;0.90;99.90;;;;;;5009001;28;20072;-48
2021/04/25 02:41:44;;;;;;;4.93;2.83;;;0.90;99.90;;;;;;5009751;28;20049;-52
2021/04/25 02:44:09;;;;;;;8.90;3.63;;;0.80;99.90;;;;;;5009157;28;20057;-54
2021/04/25 02:46:35;;;;;;;6.60;3.60;;;0.80;99.90;;;;;;5009805;28;20492;-52
2021/04/25 02:49:01;;;;;;;4.45;3.10;;;0.80;99.90;;;;;;5009148;28;20432;-53
2021/04/25 02:51:26;;;;;;;6.43;3.30;;;0.70;99.90;;;;;;5008477;28;20692;-48
2021/04/25 02:53:52;;;;;;;5.40;3.17;;;0.70;99.90;;;;;;5008448;28;20453;-54
2021/04/25 02:56:17;;;;;;;5.30;2.92;;;0.60;99.90;;;;;;5008450;28;20524;-53
2021/04/25 02:58:43;;;;;;;3.55;3.03;;;0.60;99.90;;;;;;5009006;28;20083;-48
2021/04/25 03:01:08;;;;;;;2.65;2.25;;;0.50;99.90;;;;;;5008622;28;20041;-50
2021/04/25 03:03:34;;;;;;;3.65;2.20;;;0.50;99.90;;;;;;4991485;28;20033;-48
2021/04/25 03:06:00;;;;;;;5.28;2.45;;;0.50;99.90;;;;;;4991989;28;20045;-50
2021/04/25 03:08:25;;;;;;;2.58;1.85;;;0.50;99.90;;;;;;5009137;28;20040;-51
2021/04/25 03:10:51;;;;;;;7.72;1.90;;;0.50;99.90;;;;;;5008139;28;20092;-50
2021/04/25 03:13:17;;;;;;;8.55;2.08;;;0.40;99.90;;;;;;5009235;28;20038;-55
2021/04/25 03:15:43;;;;;;;6.43;2.30;;;0.40;99.90;;;;;;5005714;28;20022;-57
2021/04/25 03:18:09;;;;;;;6.53;2.17;;;0.40;99.90;;;;;;5006993;28;20057;-51
2021/04/25 03:20:34;;;;;;;3.85;2.17;;;0.40;99.90;;;;;;5007462;28;20034;-52
2021/04/25 03:23:00;;;;;;;2.28;1.73;;;0.30;99.90;;;;;;5008419;28;20034;-54
2021/04/25 03:25:26;;;;;;;10.60;3.15;;;0.30;99.90;;;;;;5008764;28;20518;-51
2021/04/25 03:27:52;;;;;;;7.18;1.90;;;0.30;99.90;;;;;;5008297;28;20032;-48
2021/04/25 03:30:18;;;;;;;9.20;2.25;;;0.30;99.90;;;;;;5008261;28;20507;-54
2021/04/25 03:32:44;;;;;;;5.30;1.85;;;0.30;99.90;;;;;;5008251;28;20080;-49
2021/04/25 03:35:13;;;;;;;4.20;2.33;;;0.30;99.90;;;;;;5008449;28;20030;-47
2021/04/25 03:37:39;;;;;;;4.13;2.15;;;0.30;99.90;;;;;;5005871;28;20496;-50
2021/04/25 03:40:07;;;;;;;5.05;2.53;;;0.30;99.90;;;;;;5005934;28;20436;-52
2021/04/25 03:42:33;;;;;;;8.20;2.33;;;0.20;99.90;;;;;;5008510;28;20091;-51
2021/04/25 03:44:59;;;;;;;2.45;2.13;;;0.20;99.90;;;;;;5008087;28;20496;-52
2021/04/25 03:47:24;;;;;;;7.95;2.20;;;0.30;99.90;;;;;;5008148;28;20038;-51
2021/04/25 03:49:50;;;;;;;6.45;2.22;;;0.30;99.90;;;;;;5007577;28;20092;-55
2021/04/25 03:52:15;;;;;;;7.32;2.75;;;0.30;99.90;;;;;;5008451;28;20151;-54
2021/04/25 03:54:41;;;;;;;5.13;2.17;;;0.20;99.90;;;;;;5007847;28;20033;-50
2021/04/25 03:57:07;;;;;;;6.63;2.53;;;0.30;99.90;;;;;;5008088;28;20087;-51
2021/04/25 03:59:34;;;;;;;5.63;1.98;;;0.30;99.90;;;;;;4989995;28;20112;-49
2021/04/25 04:01:59;;;;;;;5.50;1.77;;;0.20;99.90;;;;;;5006788;28;20030;-51
2021/04/25 04:04:25;;;;;;;3.50;2.10;;;0.20;99.90;;;;;;5008304;28;20100;-50
2021/04/25 04:06:50;;;;;;;4.40;2.63;;;0.20;99.90;;;;;;5007570;28;20515;-52
2021/04/25 04:09:18;;;;;;;8.13;2.30;;;0.20;99.90;;;;;;5006887;28;20094;-54
2021/04/25 04:11:44;;;;;;;4.07;2.72;;;0.20;99.90;;;;;;5008018;28;20022;-52
2021/04/25 04:14:10;;;;;;;6.53;2.22;;;0.20;99.90;;;;;;5005562;28;20068;-51
2021/04/25 04:16:36;;;;;;;7.20;2.30;;;0.30;99.90;;;;;;5008161;28;20500;-52
2021/04/25 04:19:01;;;;;;;5.60;2.58;;;0.30;99.90;;;;;;4990568;28;20021;-51
2021/04/25 04:21:27;;;;;;;5.57;2.35;;;0.30;99.90;;;;;;5007512;28;20056;-53
2021/04/25 04:23:52;;;;;;;9.93;2.95;;;0.30;99.90;;;;;;5007801;28;20030;-53
2021/04/25 04:26:18;;;;;;;5.97;3.08;;;0.30;99.90;;;;;;5007107;28;20103;-53
2021/04/25 04:28:44;;;;;;;4.55;2.28;;;0.40;99.90;;;;;;5005575;28;20113;-53
2021/04/25 04:31:09;;;;;;;6.82;2.75;;;0.40;99.90;;;;;;5006661;28;20511;-53
2021/04/25 04:33:35;;;;;;;2.67;2.08;;;0.40;99.90;;;;;;5007172;28;20030;-55
2021/04/25 04:36:02;;;;;;;7.15;2.78;;;0.40;99.90;;;;;;5007102;28;20026;-54
2021/04/25 04:38:28;;;;;;;4.00;2.08;;;0.40;99.90;;;;;;5007774;28;20020;-51
2021/04/25 04:40:53;;;;;;;5.03;2.17;;;0.40;99.90;;;;;;4989991;28;20029;-51
2021/04/25 04:43:19;;;;;;;4.00;2.42;;;0.40;99.90;;;;;;5007252;28;20129;-51
2021/04/25 04:45:45;;;;;;;6.20;2.38;;;0.40;99.90;;;;;;5004773;28;20312;-50
2021/04/25 04:48:10;;;;;;;3.58;2.22;;;0.40;99.90;;;;;;5007443;28;20034;-52
2021/04/25 04:50:36;;;;;;;2.40;1.95;;;0.40;99.90;;;;;;5000233;28;20026;-54
2021/04/25 04:53:02;;;;;;;5.22;2.38;;;0.50;99.90;;;;;;5002045;28;20026;-56
2021/04/25 04:55:27;;;;;;;3.25;2.20;;;0.50;99.90;;;;;;5005315;28;20060;-53
2021/04/25 04:57:53;;;;;;;5.03;2.50;;;0.50;99.90;;;;;;5007916;28;20033;-50
2021/04/25 05:00:18;;;;;;;7.45;2.35;;;0.50;99.90;;;;;;5004340;28;20629;-55
2021/04/25 05:02:44;;;;;;;5.43;2.65;;;0.60;99.90;;;;;;5005042;28;20084;-51
2021/04/25 05:05:10;;;;;;;7.22;2.90;;;0.70;99.90;;;;;;5005401;28;20045;-54
2021/04/25 05:07:36;;;;;;;9.30;2.90;;;0.70;99.90;;;;;;5005587;28;20140;-53
2021/04/25 05:10:02;;;;;;;4.32;2.28;;;0.70;99.90;;;;;;5004374;28;20270;-52
2021/04/25 05:12:28;;;;;;;3.45;2.33;;;0.80;99.90;;;;;;4989613;28;20518;-55
2021/04/25 05:14:54;;;;;;;6.78;2.50;;;0.80;99.90;;;;;;5004884;28;20097;-53
2021/04/25 05:17:19;;;;;;;7.32;2.75;;;0.90;99.90;;;;;;5003762;28;20463;-53
2021/04/25 05:19:45;;;;;;;4.63;2.10;;;0.90;99.90;;;;;;5003756;28;20029;-50
2021/04/25 05:22:10;;;;;;;6.88;3.30;;;0.90;99.90;;;;;;5004071;28;20041;-55
2021/04/25 05:24:36;;;;;;;6.95;2.72;;;0.90;99.90;;;;;;5002068;28;20022;-49
2021/04/25 05:27:02;;;;;;;4.38;2.40;;;1.00;99.90;;;;;;5003496;28;20614;-53
2021/04/25 05:29:27;;;;;;;3.53;2.40;;;1.10;99.90;;;;;;5002515;28;20026;-58
2021/04/25 05:31:53;;;;;;;6.07;3.17;;;1.20;99.90;;;;;;5002985;28;20022;-55
2021/04/25 05:34:19;;;;;;;5.00;2.83;;;1.30;99.90;;;;;;5003363;28;20038;-53
2021/04/25 05:36:46;;;;;;;7.05;2.65;;;1.30;99.90;;;;;;5003792;28;20093;-53
2021/04/25 05:39:11;;;;;;;5.90;2.58;;;1.40;99.90;;;;;;5006038;28;20080;-52
2021/04/25 05:41:37;;;;;;;5.72;2.60;;;1.50;99.90;;;;;;5007981;28;20022;-55
2021/04/25 05:44:03;;;;;;;5.35;2.63;;;1.60;99.90;;;;;;4992858;28;20042;-54
2021/04/25 05:46:29;;;;;;;4.97;2.30;;;1.60;99.90;;;;;;5009424;28;20030;-51
2021/04/25 05:48:55;;;;;;;5.63;2.65;;;1.70;99.90;;;;;;5009740;28;20041;-51
2021/04/25 05:51:20;;;;;;;8.85;2.70;;;1.80;99.90;;;;;;5008904;28;20065;-52
2021/04/25 05:53:46;;;;;;;3.20;2.90;;;1.90;99.90;;;;;;4992271;28;20044;-51
2021/04/25 05:56:12;;;;;;;11.90;3.55;;;1.90;99.90;;;;;;4992171;28;20109;-52
2021/04/25 05:58:37;;;;;;;6.15;3.05;;;2.00;99.90;;;;;;5008543;28;20041;-54
2021/04/25 06:01:04;;;;;;;7.13;3.92;;;2.00;99.90;;;;;;5008167;28;20066;-56
2021/04/25 06:03:30;;;;;;;6.93;4.15;;;2.10;99.90;;;;;;5010504;28;20034;-55
2021/04/25 06:05:56;;;;;;;9.10;4.82;;;2.20;99.90;;;;;;5010423;28;20152;-52
2021/04/25 06:08:22;;;;;;;10.05;5.70;;;2.40;99.90;;;;;;5010577;28;20053;-55
2021/04/25 06:10:47;;;;;;;9.75;5.82;;;2.50;99.90;;;;;;5009492;28;20150;-52
2021/04/25 06:13:13;;;;;;;8.07;4.78;;;2.60;99.90;;;;;;5010858;28;20030;-52
2021/04/25 06:15:39;;;;;;;9.82;5.47;;;2.70;99.90;;;;;;5010379;28;20501;-51
2021/04/25 06:18:05;;;;;;;9.18;5.10;;;2.90;99.90;;;;;;5010726;28;20053;-54
2021/04/25 06:20:31;;;;;;;10.18;5.45;;;2.90;99.90;;;;;;5009531;28;20030;-52
2021/04/25 06:22:58;;;;;;;6.97;5.50;;;3.00;99.90;;;;;;5009501;28;20147;-50
2021/04/25 06:25:24;;;;;;;8.45;4.97;;;3.10;99.90;;;;;;5009832;28;20088;-51
2021/04/25 06:27:50;;;;;;;9.73;4.70;;;3.10;99.90;;;;;;5009562;28;20029;-52
2021/04/25 06:30:17;;;;;;;6.20;4.25;;;3.30;99.90;;;;;;5009183;28;20127;-51
2021/04/25 06:32:44;;;;;;;8.90;4.22;;;3.50;99.90;;;;;;5009962;28;20053;-53
2021/04/25 06:35:13;;;;;;;6.20;4.30;;;3.70;99.90;;;;;;5009819;28;20721;-53
2021/04/25 06:37:39;;;;;;;5.90;3.75;;;3.80;99.90;;;;;;5009705;28;20025;-51
2021/04/25 06:40:06;;;;;;;6.47;4.55;;;4.10;99.90;;;;;;5009953;28;20038;-54
2021/04/25 06:42:32;;;;;;;10.18;3.72;;;4.30;99.90;;;;;;5010481;28;20580;-50
2021/04/25 06:44:58;;;;;;;5.68;3.55;;;4.50;99.90;;;;;;5009654;28;20097;-50
2021/04/25 06:47:23;;;;;;;4.03;3.22;;;4.70;99.90;;;;;;5009828;28;20026;-51
2021/04/25 06:49:49;;;;;;;4.32;2.60;;;4.90;99.90;;;;;;5007463;28;20381;-54
2021/04/25 06:52:15;;;;;;;3.63;2.10;;;5.20;99.90;;;;;;4991256;28;20063;-53
2021/04/25 06:54:40;;;;;;;3.13;1.83;;;5.30;99.90;;;;;;5006557;28;20029;-53
2021/04/25 06:57:07;;;;;;;4.68;1.70;;;5.60;99.90;;;;;;5010304;28;20088;-48
2021/04/25 06:59:33;;;;;;;2.72;1.88;;;5.70;99.90;;;;;;5009299;28;20039;-53
2021/04/25 07:01:58;;;;;;;3.05;1.55;;;6.00;99.90;;;;;;5009146;28;20016;-53
2021/04/25 07:04:24;;;;;;;3.88;2.50;;;6.10;99.90;;;;;;5008883;28;20033;-52
2021/04/25 07:06:50;;;;;;;5.35;1.98;;;6.40;99.90;;;;;;5008726;28;20034;-51
2021/04/25 07:09:16;;;;;;;3.80;2.25;;;6.70;99.90;;;;;;5007331;28;20091;-54
2021/04/25 07:11:42;;;;;;;5.57;2.40;;;6.90;99.90;;;;;;5008382;28;20025;-53
2021/04/25 07:14:08;;;;;;;3.33;2.08;;;7.10;99.90;;;;;;5009156;28;20034;-52
2021/04/25 07:16:33;;;;;;;3.92;1.40;;;7.40;99.90;;;;;;5009627;28;20707;-51
2021/04/25 07:18:59;;;;;;;2.65;1.65;;;7.60;99.90;;;;;;5009669;28;20029;-51
2021/04/25 07:21:24;;;;;;;4.72;1.75;;;7.70;99.90;;;;;;5009143;28;20046;-50
2021/04/25 07:23:50;;;;;;;2.50;1.55;;;7.80;99.50;;;;;;5009122;28;20088;-50
2021/04/25 07:26:16;;;;;;;3.25;1.80;;;8.10;99.90;;;;;;5010225;28;20127;-51
2021/04/25 07:28:41;;;;;;;2.45;1.40;;;8.20;98.30;;;;;;5008874;28;20484;-49
2021/04/25 07:31:07;;;;;;;2.33;1.73;;;8.30;98.50;;;;;;5008497;28;20432;-51
2021/04/25 07:33:34;;;;;;;5.20;1.50;;;8.30;97.10;;;;;;5009702;28;20131;-48
2021/04/25 07:36:02;;;;;;;3.50;1.83;;;8.30;98.90;;;;;;5008096;28;20140;-53
2021/04/25 07:38:27;;;;;;;4.45;1.40;;;8.60;97.70;;;;;;5009083;28;20033;-51
2021/04/25 07:40:53;;;;;;;2.58;1.13;;;8.70;95.10;;;;;;5009111;28;20053;-52
2021/04/25 07:43:19;;;;;;;2.17;1.52;;;8.60;95.80;;;;;;5009720;28;20408;-53
2021/04/25 07:45:45;;;;;;;3.15;1.10;;;8.80;94.30;;;;;;5008779;28;20037;-56
2021/04/25 07:48:10;;;;;;;1.38;0.88;;;9.00;93.80;;;;;;5008611;28;20571;-51
2021/04/25 07:50:36;;;;;;;0.77;0.70;;;9.10;91.90;;;;;;5008951;28;20040;-54
2021/04/25 07:53:04;;;;;;;1.20;0.95;;;9.10;90.40;;;;;;4990777;28;20040;-51
2021/04/25 07:55:29;;;;;;;0.57;0.50;;;8.80;89.80;;;;;;5008595;28;20415;-54
2021/04/25 07:57:55;;;;;;;5.65;0.82;;;8.90;86.70;;;;;;5009180;28;20355;-48
2021/04/25 08:00:21;;;;;;;1.33;0.52;;;8.70;85.80;;;;;;5008570;28;20029;-54
2021/04/25 08:02:46;;;;;;;0.93;0.68;;;9.00;90.30;;;;;;5009078;28;20034;-51
2021/04/25 08:05:12;;;;;;;2.08;1.05;;;9.20;86.30;;;;;;5007827;28;20064;-53
2021/04/25 08:07:38;;;;;;;2.95;0.80;;;9.50;83.50;;;;;;5040824;22;20056;-58
2021/04/25 08:10:08;;;;;;;2.65;0.77;;;9.60;82.00;;;;;;5007170;28;20018;-57
2021/04/25 08:12:34;;;;;;;0.65;0.65;;;9.80;79.50;;;;;;5027575;28;20395;-59
2021/04/25 08:15:00;;;;;;;1.30;0.70;;;10.10;74.20;;;;;;5028904;28;20071;-58
2021/04/25 08:17:25;;;;;;;1.27;0.60;;;9.90;69.30;;;;;;5028756;28;20032;-57
2021/04/25 08:19:51;;;;;;;2.97;0.80;;;9.80;69.40;;;;;;5028362;28;20026;-53
2021/04/25 08:22:17;;;;;;;0.85;0.60;;;10.00;73.60;;;;;;5028740;28;20063;-57
2021/04/25 08:24:43;;;;;;;0.80;0.60;;;9.90;64.40;;;;;;5028285;28;20053;-56
2021/04/25 08:27:09;;;;;;;2.25;0.70;;;10.10;66.90;;;;;;5026419;28;20025;-56
2021/04/25 08:29:34;;;;;;;1.75;0.60;;;10.50;65.50;;;;;;5026847;28;20029;-57
2021/04/25 08:32:00;;;;;;;1.73;0.80;;;10.70;66.40;;;;;;5027033;28;20024;-55
2021/04/25 08:34:25;;;;;;;0.73;0.50;;;10.70;62.30;;;;;;5027682;28;20052;-55
2021/04/25 08:36:51;;;;;;;0.65;0.60;;;10.30;61.80;;;;;;5027905;28;20030;-56
2021/04/25 08:39:16;;;;;;;0.75;0.55;;;10.00;61.20;;;;;;5027628;28;20041;-56
2021/04/25 08:41:46;;;;;;;0.65;0.40;;;10.30;65.20;;;;;;5026786;28;20155;-58
2021/04/25 08:44:16;;;;;;;0.85;0.57;;;10.40;61.90;;;;;;5027093;28;20022;-56
2021/04/25 08:46:45;;;;;;;1.10;0.57;;;10.50;60.90;;;;;;5027427;28;20029;-53
2021/04/25 08:49:10;;;;;;;1.48;0.57;;;10.80;60.00;;;;;;5027433;28;20141;-57
2021/04/25 08:51:37;;;;;;;2.55;0.70;;;11.00;55.80;;;;;;5025807;28;20365;-56
2021/04/25 08:54:02;;;;;;;2.50;0.60;;;11.40;55.50;;;;;;5026997;28;20041;-58
2021/04/25 08:56:31;;;;;;;3.63;0.45;;;11.20;53.70;;;;;;5026905;28;20029;-58
2021/04/25 08:58:56;;;;;;;0.55;0.30;;;11.30;54.80;;;;;;5009843;28;20021;-56
2021/04/25 09:01:22;;;;;;;1.63;0.55;;;11.50;56.40;;;;;;5027102;28;20087;-58
2021/04/25 09:03:48;;;;;;;1.00;0.57;;;11.70;52.70;;;;;;5027738;28;20032;-58
2021/04/25 09:06:13;;;;;;;0.95;0.57;;;11.70;52.70;;;;;;5022835;28;20033;-57
2021/04/25 09:08:56;;;;;;;1.52;0.60;;;11.10;53.10;;;;;;5023072;28;20128;-59
2021/04/25 09:11:32;;;;;;;1.27;0.52;;;10.80;54.50;;;;;;5026907;28;20372;-55
2021/04/25 09:14:14;;;;;;;1.20;0.90;;;10.30;58.30;;;;;;5026464;28;20507;-56
2021/04/25 09:16:41;;;;;;;1.25;0.60;;;10.10;57.40;;;;;;5025944;28;20026;-60
2021/04/25 09:19:06;;;;;;;2.42;0.68;;;9.80;58.50;;;;;;5008474;28;20024;-56
2021/04/25 09:21:32;;;;;;;1.23;0.60;;;9.50;57.30;;;;;;5027354;28;20033;-56
2021/04/25 09:24:22;;;;;;;0.50;0.50;;;9.30;58.20;;;;;;5026175;28;20464;-58
2021/04/25 09:26:50;;;;;;;1.58;0.43;;;9.30;57.40;;;;;;5025860;28;20079;-56
2021/04/25 09:29:15;;;;;;;0.68;0.50;;;9.00;58.60;;;;;;5025107;28;20387;-56
2021/04/25 09:31:41;;;;;;;0.93;0.65;;;8.90;55.30;;;;;;5022378;28;20029;-58
2021/04/25 09:34:07;;;;;;;1.10;0.85;;;8.80;56.00;;;;;;5025644;28;20470;-56
2021/04/25 09:36:33;;;;;;;0.55;0.38;;;8.80;54.60;;;;;;5025995;28;20029;-59
2021/04/25 09:39:15;;;;;;;1.80;0.60;;;9.00;52.80;;;;;;5027260;28;20060;-58
2021/04/25 09:41:41;;;;;;;0.75;0.45;;;9.60;53.20;;;;;;5026025;28;20057;-58
2021/04/25 09:44:07;;;;;;;1.55;0.40;;;10.10;51.80;;;;;;5026973;28;20080;-60
2021/04/25 09:46:56;;;;;;;1.17;0.65;;;10.60;51.90;;;;;;5027154;28;20034;-57
2021/04/25 09:49:41;;;;;;;0.45;0.40;;;10.40;51.30;;;;;;5026484;28;20022;-56
2021/04/25 09:52:09;;;;;;;1.83;0.50;;;10.30;50.10;;;;;;5026334;28;20029;-57
2021/04/25 09:54:35;;;;;;;0.30;0.30;;;9.90;49.60;;;;;;5009222;28;20014;-58
2021/04/25 09:57:01;;;;;;;1.48;0.70;;;9.70;50.70;;;;;;5026041;28;20542;-57
2021/04/25 09:59:27;;;;;;;0.40;0.30;;;9.90;50.80;;;;;;5026549;28;20581;-57
2021/04/25 10:02:06;;;;;;;0.45;0.40;;;10.30;50.70;;;;;;5025326;28;20560;-57
2021/04/25 10:04:37;;;;;;;0.43;0.32;;;10.50;48.40;;;;;;5027463;28;20018;-59
2021/04/25 10:07:10;;;;;;;0.40;0.38;;;10.80;49.40;;;;;;5026452;28;20021;-57
2021/04/25 10:09:35;;;;;;;0.63;0.45;;;10.90;47.70;;;;;;5025822;28;20480;-58
2021/04/25 10:12:03;;;;;;;1.55;0.50;;;10.80;47.10;;;;;;5026865;28;20018;-58
2021/04/25 10:14:33;;;;;;;0.50;0.40;;;10.30;48.00;;;;;;5027065;28;20030;-58
2021/04/25 10:16:59;;;;;;;0.50;0.50;;;10.10;48.20;;;;;;5026825;28;20550;-59
2021/04/25 10:19:25;;;;;;;1.17;0.55;;;10.00;50.00;;;;;;5026171;28;20041;-60
2021/04/25 10:21:52;;;;;;;0.95;0.50;;;10.10;48.80;;;;;;5026657;28;20028;-57
2021/04/25 10:24:20;;;;;;;2.78;0.50;;;10.20;49.10;;;;;;5026821;28;20030;-57
2021/04/25 10:27:00;;;;;;;0.52;0.47;;;10.60;47.10;;;;;;5025646;28;20029;-57
2021/04/25 10:29:31;;;;;;;0.40;0.40;;;10.60;47.20;;;;;;5029076;28;20526;-58
2021/04/25 10:31:59;;;;;;;1.25;0.68;;;10.70;46.70;;;;;;5029645;28;20109;-57
2021/04/25 10:34:25;;;;;;;1.60;0.43;;;10.50;45.90;;;;;;5030161;28;20053;-59
2021/04/25 10:36:51;;;;;;;0.57;0.57;;;10.50;46.20;;;;;;5030185;28;20045;-58
2021/04/25 10:39:41;;;;;;;0.75;0.40;;;10.80;46.10;;;;;;5029385;28;20033;-59
2021/04/25 10:42:16;;;;;;;0.90;0.50;;;11.10;45.30;;;;;;5029764;28;20029;-58
2021/04/25 10:44:57;;;;;;;0.70;0.38;;;11.20;44.40;;;;;;5029385;28;20022;-57
2021/04/25 10:47:31;;;;;;;0.90;0.50;;;11.40;43.60;;;;;;5029386;28;20396;-60
2021/04/25 10:50:01;;;;;;;1.90;0.52;;;11.60;46.30;;;;;;5011728;28;20022;-58
2021/04/25 10:52:28;;;;;;;0.38;0.38;;;11.70;44.50;;;;;;5029677;28;20029;-59
2021/04/25 10:57:53;;;;;;;0.50;0.32;;;12.30;43.30;;;;;;5030051;28;20021;-60
2021/04/25 11:00:40;;;;;;;1.15;0.28;;;12.30;41.50;;;;;;5028753;28;20033;-59
2021/04/25 11:03:21;;;;;;;0.57;0.35;;;12.20;41.50;;;;;;5029883;28;20026;-58
2021/04/25 11:05:49;;;;;;;0.60;0.40;;;12.10;41.40;;;;;;5029709;28;20051;-54
2021/04/25 11:08:18;;;;;;;0.55;0.55;;;11.90;40.40;;;;;;5029174;28;20064;-58
2021/04/25 11:11:05;;;;;;;0.40;0.40;;;11.50;41.60;;;;;;5029257;28;20544;-59
2021/04/25 11:13:33;;;;;;;0.75;0.50;;;11.30;42.10;;;;;;5027904;28;20036;-59
2021/04/25 11:16:02;;;;;;;2.15;0.30;;;11.60;41.40;;;;;;5029903;28;20022;-58
2021/04/25 11:18:39;;;;;;;0.77;0.50;;;12.10;41.50;;;;;;5027863;28;20492;-59
2021/04/25 11:24:02;;;;;;;0.77;0.50;;;12.40;40.40;;;;;;5028829;28;20026;-56
2021/04/25 11:26:49;;;;;;;2.03;0.30;;;12.20;42.50;;;;;;5029265;28;20026;-60
2021/04/25 11:29:23;;;;;;;1.00;0.38;;;11.70;42.50;;;;;;5020149;28;20045;-60
2021/04/25 11:31:57;;;;;;;0.70;0.30;;;11.20;42.10;;;;;;5028250;28;20058;-59
2021/04/25 11:34:30;;;;;;;1.75;0.43;;;11.20;43.50;;;;;;5028740;28;20024;-57
2021/04/25 11:37:02;;;;;;;0.88;0.32;;;11.70;45.70;;;;;;5028563;28;20070;-58
2021/04/25 11:39:51;;;;;;;0.57;0.47;;;12.00;43.20;;;;;;5028242;28;20029;-59
2021/04/25 11:42:29;;;;;;;0.30;0.30;;;12.10;42.40;;;;;;5020716;28;20112;-58
2021/04/25 11:45:03;;;;;;;0.22;0.22;;;11.60;41.40;;;;;;5026241;28;20104;-59
2021/04/25 11:47:31;;;;;;;0.30;0.30;;;11.60;40.90;;;;;;5027310;28;20056;-60
2021/04/25 11:49:58;;;;;;;1.40;0.38;;;11.90;43.20;;;;;;5025932;28;20466;-59
2021/04/25 11:52:34;;;;;;;1.48;0.30;;;12.20;41.70;;;;;;5025089;28;20064;-58
2021/04/25 11:55:15;;;;;;;1.45;0.32;;;12.30;40.30;;;;;;5026131;28;20513;-56
2021/04/25 11:57:43;;;;;;;0.47;0.30;;;12.00;38.20;;;;;;5025751;28;20108;-59
2021/04/25 12:00:18;;;;;;;0.43;0.20;;;11.90;39.40;;;;;;5024930;28;20036;-57
2021/04/25 12:03:01;;;;;;;0.77;0.38;;;11.70;38.50;;;;;;5024824;28;20393;-58
2021/04/25 12:05:32;;;;;;;0.43;0.30;;;11.90;40.00;;;;;;5024463;28;20051;-58
2021/04/25 12:07:58;;;;;;;0.30;0.20;;;12.10;38.80;;;;;;5026298;28;20499;-57
2021/04/25 12:10:35;;;;;;;0.68;0.43;;;12.00;38.80;;;;;;5025730;28;20033;-61
2021/04/25 12:13:12;;;;;;;0.60;0.30;;;12.10;38.00;;;;;;5007652;28;20029;-58
2021/04/25 12:15:49;;;;;;;0.22;0.22;;;12.20;38.10;;;;;;5025274;28;20229;-57
2021/04/25 12:18:22;;;;;;;1.15;0.30;;;12.10;38.20;;;;;;5026515;28;20036;-59
2021/04/25 12:20:50;;;;;;;0.30;0.30;;;12.20;40.00;;;;;;5025777;28;20029;-58
2021/04/25 12:23:22;;;;;;;0.15;0.15;;;12.20;39.30;;;;;;5026964;28;20567;-59
2021/04/25 12:25:49;;;;;;;0.50;0.35;;;12.30;38.30;;;;;;5026189;28;20025;-60
2021/04/25 12:28:16;;;;;;;0.35;0.30;;;12.50;36.90;;;;;;5024843;28;20519;-61
2021/04/25 12:30:44;;;;;;;0.45;0.40;;;12.50;38.40;;;;;;5026118;28;20520;-59
2021/04/25 12:33:15;;;;;;;0.30;0.22;;;12.40;36.40;;;;;;5027199;28;20171;-61
2021/04/25 12:35:46;;;;;;;0.82;0.50;;;12.40;36.40;;;;;;5026609;28;20021;-57
2021/04/25 12:38:25;;;;;;;0.40;0.40;;;12.40;37.70;;;;;;5025676;28;20030;-60
2021/04/25 12:41:05;;;;;;;0.28;0.20;;;12.30;37.60;;;;;;5008865;28;20021;-58
2021/04/25 12:43:34;;;;;;;0.35;0.17;;;12.40;39.40;;;;;;5024727;28;20556;-58
2021/04/25 12:46:11;;;;;;;1.48;0.25;;;12.50;38.70;;;;;;5023681;28;20033;-58
2021/04/25 12:48:39;;;;;;;1.38;0.30;;;12.20;38.10;;;;;;5025143;28;20030;-60
2021/04/25 12:51:20;;;;;;;0.55;0.30;;;12.20;39.30;;;;;;5024536;28;20424;-59
2021/04/25 12:53:52;;;;;;;1.30;0.40;;;12.20;38.30;;;;;;5025651;28;20017;-59
2021/04/25 12:56:25;;;;;;;1.05;0.20;;;12.20;37.90;;;;;;5027859;28;20021;-59
2021/04/25 12:59:04;;;;;;;0.28;0.20;;;12.10;39.10;;;;;;5027729;28;20109;-60
2021/04/25 13:01:31;;;;;;;0.40;0.20;;;12.10;38.60;;;;;;5026359;28;20092;-58